createdAt,value
2022-09-17T00:01:43.117Z,9.90
2022-09-17T00:04:18.627Z,9.80
2022-09-17T00:06:46.775Z,9.90
2022-09-17T00:09:21.651Z,9.90
2022-09-17T00:11:49.881Z,9.90
2022-09-17T00:14:25.674Z,9.90
2022-09-17T00:17:02.916Z,9.90
2022-09-17T00:19:43.688Z,9.90
2022-09-17T00:22:11.757Z,9.90
2022-09-17T00:24:46.681Z,9.90
2022-09-17T00:27:14.723Z,9.80
2022-09-17T00:29:49.744Z,9.90
2022-09-17T00:32:21.559Z,9.90
2022-09-17T00:34:58.708Z,9.90
2022-09-17T00:37:26.774Z,9.90
2022-09-17T00:40:01.734Z,10.00
2022-09-17T00:42:29.855Z,10.00
2022-09-17T00:45:17.783Z,9.90
2022-09-17T00:47:54.328Z,10.00
2022-09-17T00:50:34.711Z,10.00
2022-09-17T00:53:06.994Z,10.00
2022-09-17T00:55:44.693Z,10.00
2022-09-17T00:58:16.446Z,10.00
2022-09-17T01:00:51.976Z,10.10
2022-09-17T01:03:22.079Z,10.10
2022-09-17T01:06:04.732Z,10.10
2022-09-17T01:08:42.136Z,10.10
2022-09-17T01:11:36.736Z,10.10
2022-09-17T01:14:20.732Z,10.20
2022-09-17T01:17:03.718Z,10.20
2022-09-17T01:20:15.772Z,10.20
2022-09-17T01:22:55.890Z,10.20
2022-09-17T01:25:31.730Z,10.20
2022-09-17T01:28:42.743Z,10.20
2022-09-17T01:31:36.027Z,10.30
2022-09-17T01:34:20.724Z,10.20
2022-09-17T01:37:05.296Z,10.30
2022-09-17T01:39:47.736Z,10.20
2022-09-17T01:42:21.102Z,10.20
2022-09-17T01:45:02.735Z,10.30
2022-09-17T01:47:35.940Z,10.30
2022-09-17T01:50:16.783Z,10.30
2022-09-17T01:52:49.261Z,10.30
2022-09-17T01:55:25.771Z,10.30
2022-09-17T01:57:59.131Z,10.20
2022-09-17T02:00:35.423Z,10.30
2022-09-17T02:03:10.183Z,10.20
2022-09-17T02:05:48.758Z,10.30
2022-09-17T02:08:20.557Z,10.30
2022-09-17T02:10:59.775Z,10.30
2022-09-17T02:13:32.821Z,10.30
2022-09-17T02:16:13.842Z,10.40
2022-09-17T02:18:57.212Z,10.40
2022-09-17T02:21:41.782Z,10.40
2022-09-17T02:24:18.991Z,10.40
2022-09-17T02:26:58.794Z,10.40
2022-09-17T02:29:34.627Z,10.40
2022-09-17T02:32:09.797Z,10.40
2022-09-17T02:34:40.040Z,10.50
2022-09-17T02:37:19.807Z,10.50
2022-09-17T02:39:48.055Z,10.50
2022-09-17T02:42:29.791Z,10.50
2022-09-17T02:45:06.046Z,10.50
2022-09-17T02:47:59.790Z,10.50
2022-09-17T02:50:49.185Z,10.50
2022-09-17T02:53:39.787Z,10.60
2022-09-17T02:56:20.536Z,10.60
2022-09-17T02:59:00.827Z,10.60
2022-09-17T03:01:34.975Z,10.60
2022-09-17T03:04:13.834Z,10.60
2022-09-17T03:06:44.956Z,10.50
2022-09-17T03:09:19.854Z,10.50
2022-09-17T03:11:48.175Z,10.50
2022-09-17T03:14:22.830Z,10.40
2022-09-17T03:16:57.786Z,10.40
2022-09-17T03:19:32.826Z,10.40
2022-09-17T03:22:02.229Z,10.40
2022-09-17T03:24:37.852Z,10.40
2022-09-17T03:27:06.482Z,10.40
2022-09-17T03:29:40.843Z,10.30
2022-09-17T03:32:09.464Z,10.30
2022-09-17T03:34:46.864Z,10.30
2022-09-17T03:37:16.457Z,10.20
2022-09-17T03:39:50.883Z,10.20
2022-09-17T03:42:19.155Z,10.10
2022-09-17T03:44:53.836Z,10.10
2022-09-17T03:47:21.961Z,10.10
2022-09-17T03:49:56.867Z,10.00
2022-09-17T03:52:26.332Z,10.00
2022-09-17T03:55:00.902Z,10.00
2022-09-17T03:57:29.009Z,10.00
2022-09-17T04:00:03.886Z,9.90
2022-09-17T04:02:33.592Z,9.90
2022-09-17T04:05:08.860Z,9.90
2022-09-17T04:07:38.399Z,9.90
2022-09-17T04:10:13.870Z,9.80
2022-09-17T04:12:41.921Z,9.90
2022-09-17T04:15:16.923Z,9.80
2022-09-17T04:17:57.877Z,9.80
2022-09-17T04:20:27.346Z,9.80
2022-09-17T04:23:02.928Z,9.80
2022-09-17T04:25:31.103Z,9.80
2022-09-17T04:28:05.934Z,9.90
2022-09-17T04:30:34.052Z,9.90
2022-09-17T04:33:08.905Z,9.90
2022-09-17T04:35:37.228Z,10.00
2022-09-17T04:38:12.915Z,10.00
2022-09-17T04:40:42.615Z,10.00
2022-09-17T04:43:17.897Z,10.10
2022-09-17T04:45:47.461Z,10.10
2022-09-17T04:48:21.905Z,10.10
2022-09-17T04:50:49.979Z,10.10
2022-09-17T04:53:26.924Z,10.10
2022-09-17T04:55:55.200Z,10.10
2022-09-17T04:58:29.939Z,10.10
2022-09-17T05:00:58.405Z,10.10
2022-09-17T05:03:32.899Z,10.10
2022-09-17T05:06:01.035Z,10.10
2022-09-17T05:08:39.921Z,10.10
2022-09-17T05:11:08.109Z,10.10
2022-09-17T05:13:42.912Z,10.10
2022-09-17T05:16:31.019Z,10.10
2022-09-17T05:19:05.996Z,10.10
2022-09-17T05:21:34.113Z,10.20
2022-09-17T05:24:10.913Z,10.20
2022-09-17T05:26:39.103Z,10.20
2022-09-17T05:29:13.936Z,10.20
2022-09-17T05:31:42.103Z,10.20
2022-09-17T05:34:16.933Z,10.30
2022-09-17T05:36:44.968Z,10.30
2022-09-17T05:39:20.946Z,10.30
2022-09-17T05:41:48.973Z,10.30
2022-09-17T05:44:23.973Z,10.30
2022-09-17T05:46:54.545Z,10.30
2022-09-17T05:49:28.952Z,10.30
2022-09-17T05:51:56.974Z,10.20
2022-09-17T05:54:32.966Z,10.20
2022-09-17T05:57:01.765Z,10.30
2022-09-17T05:59:35.975Z,10.20
2022-09-17T06:02:04.354Z,10.20
2022-09-17T06:04:39.013Z,10.20
2022-09-17T06:07:07.445Z,10.20
2022-09-17T06:09:44.953Z,10.20
2022-09-17T06:12:13.046Z,10.20
2022-09-17T06:14:48.000Z,10.20
2022-09-17T06:17:22.960Z,10.20
2022-09-17T06:19:57.960Z,10.20
2022-09-17T06:22:26.156Z,10.20
2022-09-17T06:25:01.992Z,10.30
2022-09-17T06:27:32.678Z,10.30
2022-09-17T06:30:07.004Z,10.30
2022-09-17T06:32:35.192Z,10.40
2022-09-17T06:35:10.009Z,10.40
2022-09-17T06:37:40.358Z,10.50
2022-09-17T06:40:18.082Z,10.50
2022-09-17T06:42:46.192Z,10.60
2022-09-17T06:45:21.005Z,10.60
2022-09-17T06:47:49.116Z,10.60
2022-09-17T06:50:23.996Z,10.70
2022-09-17T06:52:53.145Z,10.70
2022-09-17T06:55:29.052Z,10.80
2022-09-17T06:58:00.857Z,10.80
2022-09-17T07:00:37.291Z,10.90
2022-09-17T07:03:05.435Z,10.90
2022-09-17T07:05:40.055Z,10.90
2022-09-17T07:08:08.109Z,10.90
2022-09-17T07:10:44.185Z,10.90
2022-09-17T07:13:12.323Z,10.90
2022-09-17T07:15:47.097Z,10.90
2022-09-17T07:18:22.742Z,10.90
2022-09-17T07:21:02.041Z,10.90
2022-09-17T07:23:31.413Z,10.90
2022-09-17T07:26:10.062Z,10.90
2022-09-17T07:28:43.972Z,10.90
2022-09-17T07:31:23.192Z,11.00
2022-09-17T07:33:51.364Z,11.20
2022-09-17T07:36:28.129Z,11.20
2022-09-17T07:38:56.202Z,11.20
2022-09-17T07:41:32.087Z,11.30
2022-09-17T07:44:02.519Z,11.40
2022-09-17T07:46:37.154Z,11.40
2022-09-17T07:49:05.512Z,11.40
2022-09-17T07:51:40.734Z,11.50
2022-09-17T07:54:09.212Z,11.50
2022-09-17T07:56:45.056Z,11.50
2022-09-17T07:59:13.446Z,11.60
2022-09-17T08:01:49.184Z,11.70
2022-09-17T08:04:17.614Z,11.80
2022-09-17T08:06:55.060Z,11.90
2022-09-17T08:09:23.521Z,12.00
2022-09-17T08:11:59.086Z,12.10
2022-09-17T08:14:29.881Z,12.10
2022-09-17T08:17:05.087Z,12.00
2022-09-17T08:19:47.083Z,12.10
2022-09-17T08:22:15.234Z,12.10
2022-09-17T08:24:52.089Z,12.10
2022-09-17T08:27:21.613Z,12.10
2022-09-17T08:29:56.128Z,12.30
2022-09-17T08:32:24.490Z,12.50
2022-09-17T08:35:00.145Z,12.60
2022-09-17T08:37:30.686Z,12.70
2022-09-17T08:40:05.173Z,12.80
2022-09-17T08:42:41.565Z,12.80
2022-09-17T08:45:23.138Z,12.80
2022-09-17T08:47:51.651Z,12.80
2022-09-17T08:50:35.175Z,12.80
2022-09-17T08:53:26.549Z,13.00
2022-09-17T08:56:16.163Z,13.00
2022-09-17T08:59:19.693Z,13.00
2022-09-17T09:02:06.360Z,13.00
2022-09-17T09:05:15.562Z,13.10
2022-09-17T09:07:53.177Z,13.00
2022-09-17T09:10:25.073Z,13.10
2022-09-17T09:13:01.178Z,13.20
2022-09-17T09:15:41.135Z,13.30
2022-09-17T09:18:32.150Z,13.50
2022-09-17T09:21:21.593Z,13.70
2022-09-17T09:24:03.215Z,13.90
2022-09-17T09:26:44.917Z,14.10
2022-09-17T09:29:28.189Z,14.20
2022-09-17T09:32:16.872Z,14.30
2022-09-17T09:34:53.165Z,14.30
2022-09-17T09:37:25.910Z,14.20
2022-09-17T09:40:03.435Z,14.00
2022-09-17T09:42:33.789Z,14.00
2022-09-17T09:45:11.157Z,14.00
2022-09-17T09:47:56.138Z,13.90
2022-09-17T09:51:05.284Z,14.00
2022-09-17T09:53:47.589Z,13.80
2022-09-17T09:56:39.198Z,13.70
2022-09-17T09:59:12.257Z,13.60
2022-09-17T10:01:49.330Z,13.60
2022-09-17T10:04:21.694Z,13.70
2022-09-17T10:06:59.222Z,14.00
2022-09-17T10:09:30.012Z,14.30
2022-09-17T10:12:10.394Z,14.40
2022-09-17T10:14:46.291Z,14.40
2022-09-17T10:17:29.184Z,14.60
2022-09-17T10:20:22.238Z,15.00
2022-09-17T10:22:58.201Z,15.30
2022-09-17T10:25:30.966Z,15.20
2022-09-17T10:28:08.225Z,15.00
2022-09-17T10:30:36.691Z,14.90
2022-09-17T10:33:25.256Z,14.60
2022-09-17T10:36:00.053Z,14.50
2022-09-17T10:38:40.231Z,14.40
2022-09-17T10:41:21.738Z,14.50
2022-09-17T10:43:56.260Z,14.40
2022-09-17T10:46:29.948Z,14.40
2022-09-17T10:49:15.253Z,14.50
2022-09-17T10:51:45.256Z,14.60
2022-09-17T10:54:52.266Z,15.00
2022-09-17T10:57:36.137Z,15.40
2022-09-17T11:00:19.228Z,15.40
2022-09-17T11:03:33.233Z,15.10
2022-09-17T11:06:25.762Z,14.80
2022-09-17T11:09:13.252Z,14.60
2022-09-17T11:11:51.132Z,14.50
2022-09-17T11:14:44.242Z,14.60
2022-09-17T11:17:57.261Z,14.60
2022-09-17T11:20:48.274Z,14.70
2022-09-17T11:23:35.083Z,14.70
2022-09-17T11:26:21.299Z,14.50
2022-09-17T11:28:58.851Z,14.40
2022-09-17T11:31:57.370Z,14.70
2022-09-17T11:34:32.645Z,15.00
2022-09-17T11:37:13.460Z,15.00
2022-09-17T11:39:48.348Z,14.90
2022-09-17T11:42:27.455Z,14.60
2022-09-17T11:44:58.821Z,14.60
2022-09-17T11:47:39.278Z,14.70
2022-09-17T11:50:19.880Z,15.00
2022-09-17T11:53:04.334Z,15.20
2022-09-17T11:55:36.786Z,15.20
2022-09-17T11:58:22.280Z,15.10
2022-09-17T12:01:02.290Z,14.90
2022-09-17T12:03:34.123Z,14.40
2022-09-17T12:06:13.295Z,13.50
2022-09-17T12:08:47.746Z,12.70
2022-09-17T12:11:27.283Z,12.10
2022-09-17T12:14:02.567Z,11.50
2022-09-17T12:16:45.391Z,11.20
2022-09-17T12:19:25.529Z,11.10
2022-09-17T12:22:04.330Z,11.00
2022-09-17T12:24:33.287Z,11.20
2022-09-17T12:27:25.318Z,11.20
2022-09-17T12:30:14.747Z,11.30
2022-09-17T12:33:16.325Z,11.30
2022-09-17T12:36:25.147Z,11.30
2022-09-17T12:39:23.365Z,11.40
2022-09-17T12:42:01.750Z,11.30
2022-09-17T12:44:57.327Z,11.70
2022-09-17T12:48:20.435Z,12.20
2022-09-17T12:51:02.115Z,12.60
2022-09-17T12:53:41.356Z,13.10
2022-09-17T12:56:31.334Z,13.60
2022-09-17T12:59:10.783Z,13.90
2022-09-17T13:01:53.395Z,14.30
2022-09-17T13:05:08.371Z,14.60
2022-09-17T13:08:09.892Z,14.90
2022-09-17T13:10:55.341Z,15.00
2022-09-17T13:13:38.009Z,15.30
2022-09-17T13:16:20.759Z,15.40
2022-09-17T13:19:16.069Z,15.60
2022-09-17T13:22:01.366Z,15.70
2022-09-17T13:24:31.847Z,15.80
2022-09-17T13:27:09.386Z,15.70
2022-09-17T13:30:02.854Z,15.50
2022-09-17T13:33:10.395Z,15.20
2022-09-17T13:35:51.992Z,14.90
2022-09-17T13:38:29.526Z,14.50
2022-09-17T13:41:19.564Z,13.80
2022-09-17T13:43:55.373Z,12.90
2022-09-17T13:46:24.666Z,12.80
2022-09-17T13:49:05.386Z,12.90
2022-09-17T13:52:00.697Z,13.00
2022-09-17T13:54:47.484Z,12.90
2022-09-17T13:57:16.709Z,13.00
2022-09-17T14:00:03.420Z,13.10
2022-09-17T14:02:37.540Z,13.40
2022-09-17T14:05:39.465Z,13.60
2022-09-17T14:08:29.256Z,13.90
2022-09-17T14:11:07.403Z,14.00
2022-09-17T14:13:53.506Z,14.00
2022-09-17T14:16:54.403Z,13.90
2022-09-17T14:19:51.497Z,13.90
2022-09-17T14:22:32.450Z,13.90
2022-09-17T14:25:00.698Z,13.90
2022-09-17T14:27:56.436Z,14.00
2022-09-17T14:30:27.092Z,14.10
2022-09-17T14:33:13.436Z,14.30
2022-09-17T14:35:44.585Z,14.30
2022-09-17T14:38:24.456Z,13.50
2022-09-17T14:41:02.108Z,12.40
2022-09-17T14:43:47.449Z,11.80
2022-09-17T14:46:21.400Z,11.40
2022-09-17T14:48:57.447Z,11.40
2022-09-17T14:51:29.143Z,11.60
2022-09-17T14:54:36.062Z,11.50
2022-09-17T14:57:21.217Z,11.60
2022-09-17T15:00:01.799Z,11.80
2022-09-17T15:02:34.557Z,11.90
2022-09-17T15:05:10.503Z,12.10
2022-09-17T15:07:45.025Z,12.20
2022-09-17T15:10:23.442Z,12.10
2022-09-17T15:12:52.562Z,12.10
2022-09-17T15:15:32.448Z,12.40
2022-09-17T15:18:06.660Z,12.50
2022-09-17T15:20:41.499Z,12.50
2022-09-17T15:23:16.211Z,12.60
2022-09-17T15:25:52.474Z,12.70
2022-09-17T15:28:29.495Z,13.00
2022-09-17T15:31:06.562Z,13.20
2022-09-17T15:33:35.334Z,13.20
2022-09-17T15:36:25.485Z,13.00
2022-09-17T15:38:53.644Z,12.80
2022-09-17T15:41:36.505Z,12.70
2022-09-17T15:44:31.403Z,12.70
2022-09-17T15:47:39.509Z,12.70
2022-09-17T15:50:18.041Z,12.80
2022-09-17T15:52:53.503Z,12.80
2022-09-17T15:55:32.610Z,12.90
2022-09-17T15:58:08.533Z,12.90
2022-09-17T16:00:43.519Z,12.90
2022-09-17T16:03:57.545Z,12.90
2022-09-17T16:06:49.937Z,12.90
2022-09-17T16:09:58.549Z,12.90
2022-09-17T16:12:28.926Z,12.80
2022-09-17T16:15:05.564Z,12.80
2022-09-17T16:17:58.535Z,12.90
2022-09-17T16:20:33.532Z,12.90
2022-09-17T16:23:03.037Z,13.00
2022-09-17T16:25:38.534Z,13.00
2022-09-17T16:28:11.529Z,13.00
2022-09-17T16:30:50.553Z,13.10
2022-09-17T16:33:19.492Z,13.10
2022-09-17T16:35:54.587Z,13.10
2022-09-17T16:38:24.039Z,13.10
2022-09-17T16:40:59.530Z,13.10
2022-09-17T16:43:27.759Z,13.00
2022-09-17T16:46:08.595Z,13.00
2022-09-17T16:48:36.749Z,12.90
2022-09-17T16:51:15.540Z,12.90
2022-09-17T16:53:45.080Z,12.90
2022-09-17T16:56:22.564Z,12.90
2022-09-17T16:58:54.881Z,12.90
2022-09-17T17:01:29.649Z,12.90
2022-09-17T17:03:59.579Z,12.80
2022-09-17T17:06:34.561Z,12.80
2022-09-17T17:09:04.587Z,12.80
2022-09-17T17:11:39.571Z,12.70
2022-09-17T17:14:11.499Z,12.70
2022-09-17T17:16:50.592Z,12.70
2022-09-17T17:19:27.012Z,12.70
2022-09-17T17:22:01.574Z,12.70
2022-09-17T17:24:31.138Z,12.60
2022-09-17T17:27:05.570Z,12.60
2022-09-17T17:29:34.172Z,12.50
2022-09-17T17:32:08.821Z,12.40
2022-09-17T17:34:37.165Z,12.40
2022-09-17T17:37:11.605Z,12.40
2022-09-17T17:39:41.273Z,12.30
2022-09-17T17:42:15.594Z,12.30
2022-09-17T17:44:43.646Z,12.30
2022-09-17T17:47:18.594Z,12.20
2022-09-17T17:49:46.754Z,12.20
2022-09-17T17:52:21.613Z,12.20
2022-09-17T17:54:51.076Z,12.20
2022-09-17T17:57:25.616Z,12.10
2022-09-17T17:59:53.699Z,12.10
2022-09-17T18:02:28.707Z,12.10
2022-09-17T18:04:58.849Z,12.10
2022-09-17T18:07:36.665Z,12.00
2022-09-17T18:10:07.333Z,12.00
2022-09-17T18:12:43.633Z,12.00
2022-09-17T18:15:12.371Z,12.00
2022-09-17T18:17:54.644Z,11.90
2022-09-17T18:20:29.446Z,11.90
2022-09-17T18:23:03.640Z,11.90
2022-09-17T18:25:33.097Z,12.00
2022-09-17T18:28:01.138Z,12.00
2022-09-17T18:30:35.770Z,12.00
2022-09-17T18:33:03.933Z,12.00
2022-09-17T18:35:42.644Z,12.00
2022-09-17T18:38:10.694Z,12.00
2022-09-17T18:40:46.732Z,12.00
2022-09-17T18:43:14.864Z,12.00
2022-09-17T18:45:49.636Z,12.00
2022-09-17T18:48:17.669Z,12.00
2022-09-17T18:51:03.700Z,12.00
2022-09-17T18:53:35.328Z,11.90
2022-09-17T18:56:14.646Z,11.90
2022-09-17T18:58:42.703Z,11.80
2022-09-17T19:01:17.716Z,11.80
2022-09-17T19:03:45.903Z,11.80
2022-09-17T19:06:21.692Z,11.80
2022-09-17T19:08:50.531Z,11.80
2022-09-17T19:11:26.683Z,11.80
2022-09-17T19:13:54.713Z,11.80
2022-09-17T19:16:29.873Z,11.80
2022-09-17T19:19:04.890Z,11.80
2022-09-17T19:21:39.737Z,11.80
2022-09-17T19:24:08.127Z,11.70
2022-09-17T19:26:47.659Z,11.70
2022-09-17T19:29:19.259Z,11.60
2022-09-17T19:31:55.706Z,11.70
2022-09-17T19:34:23.716Z,11.70
2022-09-17T19:36:58.688Z,11.70
2022-09-17T19:39:28.864Z,11.70
2022-09-17T19:42:04.685Z,11.70
2022-09-17T19:44:34.996Z,11.70
2022-09-17T19:47:09.769Z,11.70
2022-09-17T19:49:37.784Z,11.70
2022-09-17T19:52:12.705Z,11.70
2022-09-17T19:54:40.768Z,11.70
2022-09-17T19:57:16.717Z,11.60
2022-09-17T19:59:44.755Z,11.50
2022-09-17T20:02:19.823Z,11.50
2022-09-17T20:04:47.991Z,11.50
2022-09-17T20:07:22.732Z,11.50
2022-09-17T20:09:50.807Z,11.40
2022-09-17T20:12:26.723Z,11.40
2022-09-17T20:14:54.730Z,11.40
2022-09-17T20:17:29.773Z,11.40
2022-09-17T20:20:05.091Z,11.40
2022-09-17T20:22:40.798Z,11.40
2022-09-17T20:25:09.904Z,11.40
2022-09-17T20:27:45.727Z,11.40
2022-09-17T20:30:14.136Z,11.40
2022-09-17T20:32:48.747Z,11.40
2022-09-17T20:35:16.978Z,11.40
2022-09-17T20:40:40.092Z,11.30
2022-09-17T20:43:15.761Z,11.30
2022-09-17T20:45:43.786Z,11.30
2022-09-17T20:48:18.757Z,11.30
2022-09-17T20:50:56.101Z,11.30
2022-09-17T20:53:31.776Z,11.30
2022-09-17T20:56:01.264Z,11.30
2022-09-17T20:58:39.814Z,11.30
2022-09-17T21:01:13.304Z,11.30
2022-09-17T21:03:49.082Z,11.30
2022-09-17T21:06:18.479Z,11.20
2022-09-17T21:08:53.787Z,11.20
2022-09-17T21:11:24.133Z,11.20
2022-09-17T21:14:00.794Z,11.20
2022-09-17T21:16:29.052Z,11.20
2022-09-17T21:19:04.768Z,11.10
2022-09-17T21:21:38.956Z,11.20
2022-09-17T21:24:16.775Z,11.20
2022-09-17T21:26:45.862Z,11.10
2022-09-17T21:29:21.786Z,11.10
2022-09-17T21:31:53.004Z,11.10
2022-09-17T21:34:27.782Z,11.20
2022-09-17T21:36:55.877Z,11.20
2022-09-17T21:39:30.796Z,11.20
2022-09-17T21:41:58.889Z,11.20
2022-09-17T21:44:34.929Z,11.20
2022-09-17T21:47:03.091Z,11.20
2022-09-17T21:49:37.837Z,11.20
2022-09-17T21:52:06.038Z,11.20
2022-09-17T21:54:40.843Z,11.30
2022-09-17T21:57:08.915Z,11.20
2022-09-17T21:59:44.845Z,11.30
2022-09-17T22:02:13.312Z,11.30
2022-09-17T22:04:47.827Z,11.20
2022-09-17T22:07:16.627Z,11.20
2022-09-17T22:09:50.827Z,11.20
2022-09-17T22:12:18.881Z,11.30
2022-09-17T22:14:54.877Z,11.30
2022-09-17T22:17:23.053Z,11.30
2022-09-17T22:20:03.841Z,11.30
2022-09-17T22:22:31.888Z,11.30
2022-09-17T22:25:06.825Z,11.30
2022-09-17T22:27:34.993Z,11.30
2022-09-17T22:30:13.932Z,11.30
2022-09-17T22:32:42.010Z,11.30
2022-09-17T22:35:17.876Z,11.40
2022-09-17T22:37:46.478Z,11.20
2022-09-17T22:40:21.940Z,11.30
2022-09-17T22:42:52.141Z,11.30
2022-09-17T22:45:27.861Z,11.20
2022-09-17T22:47:56.232Z,11.30
2022-09-17T22:50:30.871Z,11.30
2022-09-17T22:52:59.050Z,11.30
2022-09-17T22:55:33.942Z,11.30
2022-09-17T22:58:02.023Z,11.30
2022-09-17T23:00:37.904Z,11.30
2022-09-17T23:03:06.082Z,11.30
2022-09-17T23:05:40.882Z,11.30
2022-09-17T23:08:09.001Z,11.30
2022-09-17T23:10:43.889Z,11.30
2022-09-17T23:13:12.790Z,11.30
2022-09-17T23:15:50.999Z,11.40
2022-09-17T23:18:26.065Z,11.30
2022-09-17T23:21:07.897Z,11.30
2022-09-17T23:23:37.131Z,11.40
2022-09-17T23:26:13.923Z,11.30
2022-09-17T23:28:45.486Z,11.40
2022-09-17T23:31:24.949Z,11.40
2022-09-17T23:33:54.819Z,11.40
2022-09-17T23:36:30.951Z,11.40
2022-09-17T23:39:02.243Z,11.40
2022-09-17T23:41:39.010Z,11.40
2022-09-17T23:44:14.483Z,11.40
2022-09-17T23:46:51.919Z,11.40
2022-09-17T23:49:19.971Z,11.50
2022-09-17T23:51:54.957Z,11.50
2022-09-17T23:54:23.130Z,11.50
2022-09-17T23:56:57.938Z,11.50
2022-09-17T23:59:26.054Z,11.50
